Time;durP1;ratioP1;P1;durP2;ratioP2;P2;SDS_P1;SDS_P2;PMS_P1;PMS_P2;Temp;Humidity;BMP_temperature;BMP_pressure;BME280_temperature;BME280_humidity;BME280_pressure;Samples;Min_cycle;Max_cycle;Signal;HPM_P1;HPM_P2
2022/01/14 00:01:51;;;;;;;27.97;15.20;;;4.60;99.90;;;;;;5044129;28;20238;-67
2022/01/14 00:04:18;;;;;;;23.20;14.53;;;4.70;99.90;;;;;;5051826;28;20312;-67
2022/01/14 00:06:45;;;;;;;23.73;14.57;;;4.70;99.90;;;;;;5051203;28;20224;-67
2022/01/14 00:09:13;;;;;;;28.53;14.43;;;4.70;99.90;;;;;;5052014;28;20213;-67
2022/01/14 00:11:45;;;;;;;23.30;13.57;;;4.70;99.90;;;;;;5052068;28;20255;-67
2022/01/14 00:14:21;;;;;;;26.27;14.53;;;4.80;99.90;;;;;;5052349;28;20655;-68
2022/01/14 00:16:49;;;;;;;22.80;13.77;;;4.80;99.90;;;;;;5052185;28;20275;-66
2022/01/14 00:19:18;;;;;;;26.77;15.20;;;4.80;99.90;;;;;;5051742;28;20364;-66
2022/01/14 00:21:45;;;;;;;21.97;13.67;;;4.80;99.90;;;;;;5052043;28;20701;-66
2022/01/14 00:24:24;;;;;;;22.00;13.57;;;4.80;99.90;;;;;;5051488;28;20308;-67
2022/01/14 00:32:38;;;;;;;25.97;14.03;;;4.80;99.90;;;;;;5027460;28;20213;-67
2022/01/14 00:35:07;;;;;;;20.77;13.33;;;4.80;99.90;;;;;;5041241;28;20229;-67
2022/01/14 00:37:34;;;;;;;24.40;13.70;;;4.80;99.90;;;;;;5052143;28;20210;-67
2022/01/14 00:40:01;;;;;;;24.10;13.33;;;4.80;99.90;;;;;;5052437;28;20205;-67
2022/01/14 00:42:28;;;;;;;19.80;12.77;;;4.80;99.90;;;;;;5052385;28;20216;-67
2022/01/14 00:44:55;;;;;;;21.70;13.33;;;4.80;99.90;;;;;;5052149;28;20322;-67
2022/01/14 00:47:22;;;;;;;21.23;13.03;;;4.80;99.90;;;;;;5052027;28;20213;-66
2022/01/14 00:49:48;;;;;;;19.53;12.13;;;4.80;99.90;;;;;;5051984;28;20269;-67
2022/01/14 00:52:16;;;;;;;19.63;12.53;;;4.80;99.90;;;;;;5051447;28;20235;-67
2022/01/14 00:54:43;;;;;;;22.40;12.73;;;4.80;99.90;;;;;;5051971;28;20225;-67
2022/01/14 00:57:28;;;;;;;21.90;13.43;;;4.80;99.90;;;;;;5051628;28;20667;-67
2022/01/14 00:59:54;;;;;;;24.40;12.87;;;4.90;99.90;;;;;;5053676;28;20618;-67
2022/01/14 01:02:21;;;;;;;21.30;12.40;;;4.80;99.90;;;;;;5051809;28;20213;-68
2022/01/14 01:04:49;;;;;;;21.37;11.93;;;4.80;99.90;;;;;;5052495;28;20312;-66
2022/01/14 01:07:18;;;;;;;22.50;12.93;;;4.80;99.90;;;;;;5051705;28;20198;-68
2022/01/14 01:09:49;;;;;;;20.83;12.03;;;4.80;99.90;;;;;;5052403;28;20275;-67
2022/01/14 01:12:29;;;;;;;18.17;12.40;;;4.80;99.90;;;;;;5051636;28;20296;-67
2022/01/14 01:15:04;;;;;;;21.03;12.37;;;4.90;99.90;;;;;;5051715;28;20255;-67
2022/01/14 01:17:33;;;;;;;20.80;11.93;;;4.80;99.90;;;;;;5051152;28;20204;-67
2022/01/14 01:20:00;;;;;;;17.73;11.97;;;4.80;99.90;;;;;;5049023;28;20210;-67
2022/01/14 01:22:28;;;;;;;20.73;12.33;;;4.80;99.90;;;;;;5051671;28;20205;-67
2022/01/14 01:24:55;;;;;;;20.97;12.73;;;4.80;99.90;;;;;;5051703;28;20255;-68
2022/01/14 01:27:22;;;;;;;20.97;13.10;;;4.80;99.90;;;;;;5050360;28;20332;-67
2022/01/14 01:29:54;;;;;;;20.87;12.37;;;4.80;99.90;;;;;;5050837;28;20202;-67
2022/01/14 01:32:21;;;;;;;22.80;12.50;;;4.80;99.90;;;;;;5050926;28;20658;-67
2022/01/14 01:34:48;;;;;;;21.43;12.00;;;4.80;99.90;;;;;;5051723;28;20229;-68
2022/01/14 01:37:15;;;;;;;22.37;13.60;;;4.90;99.90;;;;;;5050884;28;20218;-68
2022/01/14 01:39:43;;;;;;;20.00;12.60;;;4.80;99.90;;;;;;5051723;28;20209;-67
2022/01/14 01:42:12;;;;;;;22.37;12.27;;;4.80;99.90;;;;;;5051949;28;20241;-68
2022/01/14 01:44:41;;;;;;;20.33;12.70;;;4.80;99.90;;;;;;5038715;28;20228;-67
2022/01/14 01:47:08;;;;;;;21.40;13.27;;;4.80;99.90;;;;;;5041384;28;20198;-67
2022/01/14 01:49:36;;;;;;;20.20;12.53;;;4.80;99.90;;;;;;5051009;28;20720;-67
2022/01/14 01:52:04;;;;;;;23.57;12.50;;;4.80;99.90;;;;;;5049764;28;20670;-68
2022/01/14 01:54:31;;;;;;;21.97;12.20;;;4.80;99.90;;;;;;5051033;28;20569;-66
2022/01/14 01:57:01;;;;;;;22.30;12.73;;;4.80;99.90;;;;;;5051402;28;20233;-67
2022/01/14 01:59:30;;;;;;;25.30;12.77;;;4.80;99.90;;;;;;5052754;28;20242;-67
2022/01/14 02:01:58;;;;;;;20.97;12.53;;;4.80;99.90;;;;;;5051416;28;20220;-66
2022/01/14 02:04:25;;;;;;;26.73;13.27;;;4.80;99.90;;;;;;5052598;28;20703;-67
2022/01/14 02:06:53;;;;;;;18.80;12.63;;;4.80;99.90;;;;;;5050754;28;20206;-67
2022/01/14 02:09:21;;;;;;;17.47;11.73;;;4.80;99.90;;;;;;5052262;28;20206;-67
2022/01/14 02:11:48;;;;;;;20.87;12.03;;;4.80;99.90;;;;;;5052221;28;20234;-68
2022/01/14 02:14:29;;;;;;;19.93;11.60;;;4.80;99.90;;;;;;5051912;28;20726;-67
2022/01/14 02:17:26;;;;;;;20.93;12.17;;;4.80;99.90;;;;;;5051593;28;20217;-67
2022/01/14 02:22:09;;;;;;;18.07;10.87;;;4.80;99.90;;;;;;5040887;28;20213;-67
2022/01/14 02:22:49;;;;;;;18.73;10.53;;;4.80;99.90;;;;;;5051399;28;20198;-67
2022/01/14 02:25:23;;;;;;;18.10;11.40;;;4.80;99.90;;;;;;5051646;28;20560;-68
2022/01/14 02:27:50;;;;;;;21.30;12.03;;;4.80;99.90;;;;;;5049762;28;20218;-67
2022/01/14 02:30:17;;;;;;;19.93;12.03;;;4.80;99.90;;;;;;5052053;28;20309;-67
2022/01/14 02:32:44;;;;;;;17.80;11.17;;;4.90;99.90;;;;;;5054479;28;20232;-67
2022/01/14 02:35:12;;;;;;;17.13;10.77;;;4.80;99.90;;;;;;5055953;28;20296;-68
2022/01/14 02:37:40;;;;;;;16.63;10.30;;;4.80;99.90;;;;;;5055598;28;20205;-68
2022/01/14 02:40:08;;;;;;;16.13;11.43;;;4.80;99.90;;;;;;5056330;28;20214;-67
2022/01/14 02:42:35;;;;;;;18.10;11.67;;;4.80;99.90;;;;;;5053693;28;20716;-66
2022/01/14 02:45:05;;;;;;;18.67;11.60;;;4.80;99.90;;;;;;5055339;28;20313;-67
2022/01/14 02:47:32;;;;;;;20.97;13.00;;;4.80;99.90;;;;;;5055625;28;20249;-68
2022/01/14 02:50:00;;;;;;;19.30;10.80;;;4.80;99.90;;;;;;5050071;28;20305;-68
2022/01/14 02:52:41;;;;;;;20.87;11.13;;;4.80;99.90;;;;;;5056045;28;20210;-67
2022/01/14 02:55:18;;;;;;;18.40;11.97;;;4.80;99.90;;;;;;5051077;28;20205;-67
2022/01/14 02:57:47;;;;;;;15.50;11.17;;;4.80;99.90;;;;;;5057109;28;20217;-72
2022/01/14 03:00:15;;;;;;;20.77;11.40;;;4.80;99.90;;;;;;5056494;28;20238;-71
2022/01/14 03:02:45;;;;;;;18.27;11.40;;;4.80;99.90;;;;;;5062780;28;20208;-71
2022/01/14 03:05:12;;;;;;;16.10;10.43;;;4.80;99.90;;;;;;5055606;28;20226;-68
2022/01/14 03:07:41;;;;;;;18.50;10.97;;;4.80;99.90;;;;;;5055623;28;20206;-68
2022/01/14 03:10:10;;;;;;;18.37;11.27;;;4.70;99.90;;;;;;5055471;28;20685;-67
2022/01/14 03:12:37;;;;;;;16.00;10.43;;;4.70;99.90;;;;;;5055459;28;20233;-68
2022/01/14 03:15:05;;;;;;;17.00;11.07;;;4.70;99.90;;;;;;5055621;28;20566;-68
2022/01/14 03:17:32;;;;;;;20.80;11.27;;;4.70;99.90;;;;;;5054755;28;20217;-67
2022/01/14 03:20:01;;;;;;;19.97;11.53;;;4.80;99.90;;;;;;5055329;28;20212;-69
2022/01/14 03:22:32;;;;;;;18.53;10.83;;;4.70;99.90;;;;;;5053974;28;20217;-68
2022/01/14 03:27:45;;;;;;;18.30;11.73;;;4.70;99.90;;;;;;5043089;28;20208;-68
2022/01/14 03:30:13;;;;;;;17.23;10.23;;;4.60;99.90;;;;;;5054563;28;20206;-68
2022/01/14 03:32:40;;;;;;;18.77;10.80;;;4.70;99.90;;;;;;5054011;28;20202;-68
2022/01/14 03:35:08;;;;;;;20.33;10.37;;;4.60;99.90;;;;;;5054089;28;20212;-68
2022/01/14 03:37:35;;;;;;;20.63;10.97;;;4.60;99.90;;;;;;5053931;28;20245;-68
2022/01/14 03:40:05;;;;;;;16.80;10.30;;;4.60;99.90;;;;;;5053936;28;20202;-67
2022/01/14 03:42:32;;;;;;;15.27;10.00;;;4.60;99.90;;;;;;5053790;28;20206;-68
2022/01/14 03:45:00;;;;;;;14.73;9.40;;;4.50;99.90;;;;;;5053809;28;20236;-68
2022/01/14 03:47:27;;;;;;;14.83;10.93;;;4.60;99.90;;;;;;5054478;28;20655;-68
2022/01/14 03:49:54;;;;;;;14.10;8.93;;;4.50;99.90;;;;;;5054728;28;20211;-68
2022/01/14 03:52:21;;;;;;;14.30;9.60;;;4.60;99.90;;;;;;5054857;28;20259;-68
2022/01/14 03:54:48;;;;;;;16.23;10.87;;;4.60;99.90;;;;;;5054411;28;20210;-68
2022/01/14 03:57:16;;;;;;;17.93;10.37;;;4.60;99.90;;;;;;5054775;28;20513;-68
2022/01/14 03:59:43;;;;;;;16.57;10.83;;;4.60;99.90;;;;;;5054721;28;20222;-68
2022/01/14 04:02:10;;;;;;;14.27;9.33;;;4.60;99.90;;;;;;5055209;28;20293;-68
2022/01/14 04:04:37;;;;;;;17.87;10.27;;;4.60;99.90;;;;;;5055295;28;20697;-67
2022/01/14 04:07:04;;;;;;;12.20;9.33;;;4.60;99.90;;;;;;5055077;28;20229;-68
2022/01/14 04:09:36;;;;;;;17.13;9.70;;;4.60;99.90;;;;;;5054386;28;20216;-68
2022/01/14 04:12:04;;;;;;;14.10;9.90;;;4.60;99.90;;;;;;5053707;28;20229;-67
2022/01/14 04:17:17;;;;;;;16.10;9.73;;;4.60;99.90;;;;;;5050379;28;20224;-68
2022/01/14 04:19:44;;;;;;;14.40;9.27;;;4.50;99.90;;;;;;5054070;28;20206;-68
2022/01/14 04:22:11;;;;;;;14.00;9.90;;;4.60;99.90;;;;;;5055020;28;20216;-68
2022/01/14 04:24:38;;;;;;;14.90;9.30;;;4.60;99.90;;;;;;5054528;28;20210;-67
2022/01/14 04:27:05;;;;;;;15.47;9.10;;;4.60;99.90;;;;;;5054078;28;20221;-68
2022/01/14 04:29:33;;;;;;;16.03;9.90;;;4.60;99.90;;;;;;5053208;28;20281;-68
2022/01/14 04:32:00;;;;;;;11.80;8.93;;;4.60;99.90;;;;;;5053932;28;20603;-68
2022/01/14 04:34:27;;;;;;;15.80;9.00;;;4.60;99.90;;;;;;5052923;28;20206;-67
2022/01/14 04:36:54;;;;;;;13.87;9.47;;;4.60;99.90;;;;;;5053086;28;20206;-67
2022/01/14 04:39:21;;;;;;;14.13;9.03;;;4.60;99.90;;;;;;5052989;28;20296;-67
2022/01/14 04:41:48;;;;;;;11.90;8.27;;;4.60;99.90;;;;;;5052360;28;20670;-67
2022/01/14 04:44:15;;;;;;;11.37;7.83;;;4.60;99.90;;;;;;5053977;28;20202;-68
2022/01/14 04:47:02;;;;;;;13.70;8.50;;;4.60;99.90;;;;;;5050591;28;20868;-67
2022/01/14 04:49:29;;;;;;;10.17;7.40;;;4.60;99.90;;;;;;5053085;28;20229;-67
2022/01/14 04:51:56;;;;;;;11.77;7.90;;;4.60;99.90;;;;;;5047063;28;20647;-68
2022/01/14 04:54:23;;;;;;;11.17;7.80;;;4.60;99.90;;;;;;5054011;28;20297;-68
2022/01/14 04:56:51;;;;;;;11.40;7.07;;;4.60;99.90;;;;;;5053823;28;20230;-68
2022/01/14 04:59:18;;;;;;;10.57;6.60;;;4.70;99.90;;;;;;5053395;28;20216;-67
2022/01/14 05:01:46;;;;;;;12.93;7.80;;;4.70;99.90;;;;;;5053228;28;20206;-69
2022/01/14 05:04:13;;;;;;;11.77;6.90;;;4.70;99.90;;;;;;5053872;28;20214;-68
2022/01/14 05:06:43;;;;;;;9.90;6.63;;;4.70;99.90;;;;;;5051779;28;20340;-68
2022/01/14 05:09:20;;;;;;;8.87;6.00;;;4.70;99.90;;;;;;5053478;28;20205;-68
2022/01/14 05:11:53;;;;;;;10.40;6.33;;;4.70;99.90;;;;;;5052872;28;20244;-70
2022/01/14 05:14:21;;;;;;;11.47;6.60;;;4.70;99.90;;;;;;5069249;28;20213;-69
2022/01/14 05:16:49;;;;;;;9.27;5.97;;;4.80;99.90;;;;;;5053426;28;20213;-68
2022/01/14 05:19:16;;;;;;;9.83;6.07;;;4.80;99.90;;;;;;5052587;28;20216;-68
2022/01/14 05:21:44;;;;;;;9.90;6.40;;;4.80;99.90;;;;;;5053127;28;20213;-68
2022/01/14 05:24:11;;;;;;;7.43;5.53;;;4.80;99.90;;;;;;5052816;28;20201;-68
2022/01/14 05:26:38;;;;;;;9.20;5.80;;;4.80;99.90;;;;;;5053258;28;20236;-67
2022/01/14 05:29:05;;;;;;;9.13;5.47;;;4.80;99.90;;;;;;5047963;28;20813;-68
2022/01/14 05:31:45;;;;;;;9.77;5.60;;;4.80;99.90;;;;;;5052329;28;20215;-68
2022/01/14 05:34:14;;;;;;;9.80;5.90;;;4.80;99.90;;;;;;5051993;28;20205;-67
2022/01/14 05:36:41;;;;;;;9.27;5.47;;;4.80;99.90;;;;;;5051776;28;20284;-68
2022/01/14 05:39:09;;;;;;;7.43;5.03;;;4.80;99.90;;;;;;5052201;28;20212;-68
2022/01/14 05:41:36;;;;;;;9.10;5.50;;;4.80;99.90;;;;;;5043355;28;20202;-68
2022/01/14 05:44:04;;;;;;;8.73;5.00;;;4.80;99.90;;;;;;5052974;28;20304;-67
2022/01/14 05:46:31;;;;;;;8.67;4.37;;;4.90;99.90;;;;;;5052086;28;20683;-68
2022/01/14 05:48:58;;;;;;;10.60;5.57;;;4.90;99.90;;;;;;5052709;28;20221;-68
2022/01/14 05:51:26;;;;;;;6.40;4.30;;;4.90;99.90;;;;;;5052647;28;20742;-69
2022/01/14 05:53:53;;;;;;;8.30;5.57;;;4.90;99.90;;;;;;5052959;28;20210;-68
2022/01/14 05:56:20;;;;;;;8.57;4.53;;;4.90;99.90;;;;;;5052726;28;20225;-68
2022/01/14 05:58:46;;;;;;;7.90;4.53;;;4.90;99.90;;;;;;5051928;28;20206;-68
2022/01/14 06:01:13;;;;;;;8.40;4.70;;;4.90;99.90;;;;;;5052449;28;20245;-68
2022/01/14 06:03:40;;;;;;;6.60;4.47;;;4.90;99.90;;;;;;5052598;28;20209;-67
2022/01/14 06:06:07;;;;;;;7.33;4.30;;;4.90;99.90;;;;;;5055621;28;20243;-68
2022/01/14 06:08:35;;;;;;;5.73;4.10;;;4.90;99.90;;;;;;5057376;28;20210;-68
2022/01/14 06:11:02;;;;;;;5.27;3.57;;;4.90;99.90;;;;;;5055673;28;20684;-68
2022/01/14 06:13:29;;;;;;;7.30;4.20;;;4.90;99.90;;;;;;5056783;28;20276;-69
2022/01/14 06:15:56;;;;;;;5.37;4.10;;;5.00;99.90;;;;;;5056647;28;20269;-68
2022/01/14 06:18:23;;;;;;;6.60;4.17;;;5.00;99.90;;;;;;5056603;28;20296;-70
2022/01/14 06:20:50;;;;;;;7.10;3.80;;;5.00;99.90;;;;;;5055531;28;20209;-68
2022/01/14 06:23:16;;;;;;;6.33;3.60;;;5.00;99.90;;;;;;5055846;28;20573;-68
2022/01/14 06:25:45;;;;;;;4.30;3.70;;;5.10;99.90;;;;;;5054479;28;20259;-68
2022/01/14 06:28:12;;;;;;;5.90;3.77;;;5.10;99.90;;;;;;5055380;28;20208;-68
2022/01/14 06:30:39;;;;;;;4.67;3.17;;;5.10;99.90;;;;;;5055400;28;20210;-67
2022/01/14 06:33:05;;;;;;;4.40;3.50;;;5.10;99.90;;;;;;5041411;28;20202;-68
2022/01/14 06:35:32;;;;;;;3.87;3.07;;;5.20;99.90;;;;;;5055639;28;20249;-68
2022/01/14 06:38:00;;;;;;;6.23;3.47;;;5.20;99.90;;;;;;5055472;28;20269;-69
2022/01/14 06:40:27;;;;;;;6.53;3.47;;;5.20;99.90;;;;;;5057088;28;20670;-68
2022/01/14 06:42:55;;;;;;;3.87;3.47;;;5.20;99.90;;;;;;5057238;28;20581;-69
2022/01/14 06:45:23;;;;;;;4.90;3.40;;;5.20;99.90;;;;;;5056047;28;20210;-69
2022/01/14 06:47:51;;;;;;;6.37;3.30;;;5.20;99.90;;;;;;5055930;28;20252;-68
2022/01/14 06:50:18;;;;;;;6.33;3.40;;;5.20;99.90;;;;;;5055735;28;20269;-68
2022/01/14 06:52:45;;;;;;;5.47;3.83;;;5.20;99.90;;;;;;5056691;28;20781;-68
2022/01/14 06:55:12;;;;;;;5.37;3.90;;;5.20;99.90;;;;;;5053045;28;20215;-68
2022/01/14 06:57:40;;;;;;;5.43;3.57;;;5.20;99.90;;;;;;5055381;28;20257;-68
2022/01/14 07:00:12;;;;;;;3.67;3.33;;;5.20;99.90;;;;;;5054505;28;20478;-68
2022/01/14 07:02:40;;;;;;;5.03;3.70;;;5.20;99.90;;;;;;5051404;28;20273;-68
2022/01/14 07:05:09;;;;;;;5.60;4.20;;;5.20;99.90;;;;;;5055347;28;20642;-69
2022/01/14 07:07:36;;;;;;;6.33;3.80;;;5.20;99.90;;;;;;5054988;28;20683;-68
2022/01/14 07:10:05;;;;;;;4.97;3.53;;;5.20;99.90;;;;;;5054891;28;20252;-68
2022/01/14 07:12:34;;;;;;;6.63;4.40;;;5.20;99.90;;;;;;5053919;28;20294;-68
2022/01/14 07:15:01;;;;;;;8.23;4.10;;;5.20;99.90;;;;;;5055566;28;20292;-69
2022/01/14 07:17:30;;;;;;;5.47;4.23;;;5.20;99.90;;;;;;5053198;28;20224;-68
2022/01/14 07:20:00;;;;;;;5.90;4.30;;;5.10;99.90;;;;;;5044562;28;20849;-68
2022/01/14 07:22:27;;;;;;;6.53;4.03;;;5.20;99.90;;;;;;5055774;28;20201;-68
2022/01/14 07:24:54;;;;;;;6.60;4.20;;;5.20;99.90;;;;;;5050572;28;20666;-69
2022/01/14 07:27:21;;;;;;;5.53;4.17;;;5.20;99.90;;;;;;5053161;28;20308;-69
2022/01/14 07:29:48;;;;;;;6.53;4.13;;;5.20;99.90;;;;;;5050510;28;20206;-70
2022/01/14 07:32:15;;;;;;;7.07;4.00;;;5.10;99.90;;;;;;5055319;28;20206;-72
2022/01/14 07:34:43;;;;;;;6.57;4.23;;;5.10;99.90;;;;;;5055779;28;20202;-71
2022/01/14 07:37:10;;;;;;;5.63;3.90;;;5.10;99.90;;;;;;5053764;28;20206;-70
2022/01/14 07:39:37;;;;;;;6.70;4.33;;;5.10;99.90;;;;;;5054160;28;20294;-70
2022/01/14 07:42:05;;;;;;;5.60;4.23;;;5.10;99.90;;;;;;5054356;28;20229;-70
2022/01/14 07:44:32;;;;;;;7.23;4.47;;;5.10;99.90;;;;;;5045209;28;20247;-72
2022/01/14 07:46:59;;;;;;;4.80;4.27;;;5.10;99.90;;;;;;5054536;28;20230;-68
2022/01/14 07:49:26;;;;;;;6.60;4.80;;;5.10;99.90;;;;;;5055411;28;20228;-67
2022/01/14 07:51:55;;;;;;;7.97;5.50;;;5.10;99.90;;;;;;5055163;28;20249;-69
2022/01/14 07:54:22;;;;;;;6.33;5.23;;;5.10;99.90;;;;;;5056596;28;20206;-70
2022/01/14 07:56:52;;;;;;;6.83;5.00;;;5.10;99.90;;;;;;5053524;28;20222;-69
2022/01/14 07:59:22;;;;;;;6.60;4.93;;;5.10;99.90;;;;;;5050951;28;20241;-71
2022/01/14 08:01:51;;;;;;;8.03;5.40;;;5.10;99.90;;;;;;5055271;28;20210;-71
2022/01/14 08:04:19;;;;;;;10.13;5.03;;;5.10;99.90;;;;;;5055727;28;20256;-71
2022/01/14 08:06:48;;;;;;;6.50;5.20;;;5.10;99.90;;;;;;5055387;28;20233;-70
2022/01/14 08:09:18;;;;;;;10.00;5.73;;;5.20;99.90;;;;;;5054613;28;20737;-70
2022/01/14 08:11:47;;;;;;;6.53;5.40;;;5.10;99.90;;;;;;5054420;28;20313;-70
2022/01/14 08:14:14;;;;;;;9.60;5.63;;;5.10;99.90;;;;;;5044070;28;20663;-68
2022/01/14 08:16:42;;;;;;;7.17;5.23;;;5.20;99.90;;;;;;5045001;28;20286;-66
2022/01/14 08:19:09;;;;;;;8.13;5.67;;;5.20;99.90;;;;;;5044803;28;20253;-68
2022/01/14 08:21:36;;;;;;;7.63;5.77;;;5.10;99.90;;;;;;5052841;28;20212;-71
2022/01/14 08:24:03;;;;;;;7.57;5.97;;;5.20;99.90;;;;;;5055168;28;20213;-72
2022/01/14 08:26:31;;;;;;;8.43;5.67;;;5.20;99.90;;;;;;5053713;28;20738;-70
2022/01/14 08:28:58;;;;;;;7.83;5.17;;;5.20;99.90;;;;;;5047276;28;20209;-72
2022/01/14 08:31:25;;;;;;;6.90;5.37;;;5.20;99.90;;;;;;5054880;28;20616;-73
2022/01/14 08:33:52;;;;;;;7.23;5.87;;;5.20;99.90;;;;;;5055414;28;20213;-71
2022/01/14 08:36:20;;;;;;;9.43;5.23;;;5.20;99.90;;;;;;5055264;28;20241;-72
2022/01/14 08:38:47;;;;;;;6.17;5.53;;;5.30;99.90;;;;;;5055526;28;20244;-72
2022/01/14 08:41:14;;;;;;;7.27;6.13;;;5.30;99.90;;;;;;5054223;28;20212;-73
2022/01/14 08:43:42;;;;;;;9.47;6.00;;;5.30;99.90;;;;;;5054066;28;20246;-73
2022/01/14 08:46:09;;;;;;;6.80;5.57;;;5.30;99.90;;;;;;5053566;28;20290;-72
2022/01/14 08:48:36;;;;;;;8.53;6.27;;;5.30;99.90;;;;;;5050682;28;20715;-73
2022/01/14 08:51:03;;;;;;;8.03;5.83;;;5.30;99.90;;;;;;5054883;28;20202;-71
2022/01/14 08:53:30;;;;;;;8.67;5.97;;;5.30;99.90;;;;;;5053598;28;20212;-69
2022/01/14 08:55:57;;;;;;;8.67;5.97;;;5.30;99.90;;;;;;5052211;28;20229;-70
2022/01/14 08:58:24;;;;;;;7.43;5.77;;;5.30;99.90;;;;;;5052744;28;20289;-71
2022/01/14 09:00:53;;;;;;;8.70;6.30;;;5.30;99.90;;;;;;5051857;28;20224;-72
2022/01/14 09:03:20;;;;;;;10.47;6.90;;;5.30;99.90;;;;;;5047369;28;20234;-70
2022/01/14 09:05:47;;;;;;;8.07;6.27;;;5.30;99.90;;;;;;5050769;28;20210;-73
2022/01/14 09:08:14;;;;;;;8.80;6.07;;;5.30;99.90;;;;;;5052111;28;20321;-74
2022/01/14 09:10:41;;;;;;;10.33;6.53;;;5.40;99.90;;;;;;5051645;28;20238;-73
2022/01/14 09:13:08;;;;;;;6.67;5.70;;;5.40;99.90;;;;;;5052131;28;20213;-72
2022/01/14 09:15:36;;;;;;;10.47;6.50;;;5.40;99.90;;;;;;5051432;28;20659;-72
2022/01/14 09:18:05;;;;;;;8.30;5.93;;;5.50;99.90;;;;;;5052567;28;20705;-74
2022/01/14 09:20:32;;;;;;;6.60;5.37;;;5.50;99.90;;;;;;5052265;28;20228;-71
2022/01/14 09:22:59;;;;;;;8.50;5.57;;;5.50;99.90;;;;;;5053068;28;20216;-71
2022/01/14 09:25:28;;;;;;;9.13;6.43;;;5.50;99.90;;;;;;5053094;28;20282;-73
2022/01/14 09:27:55;;;;;;;9.10;6.07;;;5.50;99.90;;;;;;5056718;28;20256;-71
2022/01/14 09:30:24;;;;;;;8.17;5.77;;;5.60;99.90;;;;;;5052718;28;20248;-73
2022/01/14 09:32:51;;;;;;;8.57;5.80;;;5.60;99.90;;;;;;5053125;28;20727;-70
2022/01/14 09:35:23;;;;;;;6.13;5.53;;;5.60;99.90;;;;;;5051289;28;20726;-71
2022/01/14 09:37:50;;;;;;;7.80;5.60;;;5.70;99.90;;;;;;5052670;28;20241;-73
2022/01/14 09:40:18;;;;;;;8.10;5.60;;;5.70;99.90;;;;;;5053045;28;20209;-72
2022/01/14 09:42:49;;;;;;;7.20;5.13;;;5.70;99.90;;;;;;5055967;28;20232;-72
2022/01/14 09:45:18;;;;;;;6.73;5.33;;;5.70;99.90;;;;;;5056357;28;20205;-70
2022/01/14 09:47:48;;;;;;;8.43;6.40;;;5.70;99.90;;;;;;5056074;28;20233;-71
2022/01/14 09:50:15;;;;;;;8.63;5.23;;;5.80;99.90;;;;;;5050567;28;20296;-73
2022/01/14 09:52:45;;;;;;;8.30;5.40;;;5.80;99.90;;;;;;5056087;28;20272;-73
2022/01/14 09:55:12;;;;;;;6.13;4.97;;;5.80;99.90;;;;;;5056098;28;20209;-73
2022/01/14 09:57:39;;;;;;;9.40;5.53;;;5.90;99.90;;;;;;5055979;28;20316;-73
2022/01/14 10:00:07;;;;;;;5.63;4.97;;;5.90;99.90;;;;;;5052116;28;20237;-72
2022/01/14 10:02:36;;;;;;;6.53;4.90;;;5.90;99.90;;;;;;5051178;28;20205;-73
2022/01/14 10:05:04;;;;;;;8.50;4.50;;;5.90;99.90;;;;;;5055301;28;20309;-74
2022/01/14 10:07:32;;;;;;;5.93;4.47;;;5.90;99.90;;;;;;5052964;28;20335;-73
2022/01/14 10:10:02;;;;;;;6.13;4.07;;;6.00;99.90;;;;;;5052869;28;20206;-72
2022/01/14 10:12:33;;;;;;;4.70;4.00;;;6.00;99.90;;;;;;5049244;28;20238;-74
2022/01/14 10:15:03;;;;;;;7.60;4.50;;;6.00;99.90;;;;;;5055129;28;20210;-73
2022/01/14 10:17:36;;;;;;;6.00;4.38;;;6.00;99.90;;;;;;5052213;28;20439;-68
2022/01/14 10:20:05;;;;;;;4.77;3.97;;;6.00;99.90;;;;;;5053879;28;20220;-69
2022/01/14 10:22:34;;;;;;;7.67;5.23;;;6.00;99.90;;;;;;5053962;28;20282;-68
2022/01/14 10:25:05;;;;;;;7.32;5.80;;;6.00;99.90;;;;;;5050629;28;20452;-69
2022/01/14 10:27:34;;;;;;;5.93;4.60;;;6.10;99.90;;;;;;5053607;28;20746;-68
2022/01/14 10:30:13;;;;;;;5.83;4.50;;;6.10;99.90;;;;;;5044228;28;20206;-68
2022/01/14 10:32:41;;;;;;;7.63;3.90;;;6.10;99.90;;;;;;5051060;28;20672;-66
2022/01/14 10:35:10;;;;;;;6.10;3.90;;;6.10;99.90;;;;;;5053459;28;20294;-67
2022/01/14 10:37:38;;;;;;;6.33;4.00;;;6.10;99.90;;;;;;5053665;28;20281;-67
2022/01/14 10:40:14;;;;;;;6.30;3.67;;;6.10;99.90;;;;;;5054279;28;20198;-68
2022/01/14 10:42:42;;;;;;;6.27;3.90;;;6.20;99.90;;;;;;5053472;28;20206;-68
2022/01/14 10:45:19;;;;;;;5.83;4.17;;;6.20;99.90;;;;;;5054554;28;20206;-67
2022/01/14 10:47:56;;;;;;;5.03;3.90;;;6.20;99.90;;;;;;5048228;28;20614;-68
2022/01/14 10:50:37;;;;;;;4.33;3.67;;;6.20;99.90;;;;;;5053764;28;20285;-69
2022/01/14 10:53:08;;;;;;;5.37;3.13;;;6.20;99.90;;;;;;5052551;28;20589;-70
2022/01/14 10:55:39;;;;;;;3.40;2.80;;;6.30;99.90;;;;;;5053135;28;20209;-69
2022/01/14 10:58:12;;;;;;;3.53;3.10;;;6.30;99.90;;;;;;5054121;28;20225;-68
2022/01/14 11:00:41;;;;;;;3.83;2.60;;;6.30;99.90;;;;;;5053368;28;20206;-69
2022/01/14 11:03:08;;;;;;;4.70;2.77;;;6.40;99.90;;;;;;5048327;28;20230;-68
2022/01/14 11:05:35;;;;;;;2.83;2.60;;;6.40;99.90;;;;;;5053676;28;20199;-70
2022/01/14 11:08:03;;;;;;;4.10;2.60;;;6.50;99.90;;;;;;5040373;28;20229;-68
2022/01/14 11:10:33;;;;;;;3.40;2.70;;;6.50;99.90;;;;;;5045845;28;20626;-70
2022/01/14 11:13:06;;;;;;;3.33;2.33;;;6.50;99.90;;;;;;5053574;28;20209;-71
2022/01/14 11:15:35;;;;;;;3.40;2.47;;;6.50;99.90;;;;;;5052472;28;20297;-69
2022/01/14 11:18:05;;;;;;;2.97;2.60;;;6.50;99.90;;;;;;5052260;28;20202;-69
2022/01/14 11:20:36;;;;;;;4.50;2.50;;;6.60;99.90;;;;;;5043862;28;20210;-68
2022/01/14 11:23:14;;;;;;;2.47;2.13;;;6.60;99.90;;;;;;5045033;28;20270;-69
2022/01/14 11:25:45;;;;;;;2.67;2.00;;;6.60;99.90;;;;;;5048201;28;20209;-69
2022/01/14 11:28:19;;;;;;;3.20;2.60;;;6.60;99.90;;;;;;5042671;28;20222;-69
2022/01/14 11:30:47;;;;;;;2.90;2.60;;;6.60;99.90;;;;;;5049094;28;20549;-70
2022/01/14 11:33:16;;;;;;;3.40;2.27;;;6.70;99.90;;;;;;5044426;28;20211;-70
2022/01/14 11:35:54;;;;;;;4.88;3.28;;;6.70;99.90;;;;;;5050793;28;20451;-70
2022/01/14 11:38:42;;;;;;;2.87;2.27;;;6.70;99.90;;;;;;5052758;28;20615;-70
2022/01/14 11:41:12;;;;;;;4.63;2.47;;;6.70;99.90;;;;;;5053343;28;20643;-67
2022/01/14 11:43:47;;;;;;;2.33;2.13;;;6.80;99.90;;;;;;5050779;28;20297;-68
2022/01/14 11:46:17;;;;;;;3.27;2.37;;;6.80;99.90;;;;;;5050837;28;20646;-71
2022/01/14 11:48:48;;;;;;;5.63;2.30;;;6.80;99.90;;;;;;5052797;28;20614;-70
2022/01/14 11:51:18;;;;;;;3.57;2.30;;;6.80;99.90;;;;;;5042207;28;20606;-69
2022/01/14 11:53:51;;;;;;;3.80;2.70;;;6.90;99.90;;;;;;5045857;28;20210;-70
2022/01/14 11:56:45;;;;;;;2.60;2.07;;;6.90;99.90;;;;;;5049015;28;20990;-70
2022/01/14 11:59:41;;;;;;;5.63;2.80;;;6.90;99.90;;;;;;5050775;28;20716;-69
2022/01/14 12:02:34;;;;;;;3.40;2.27;;;6.90;99.90;;;;;;5039215;28;20244;-71
2022/01/14 12:05:05;;;;;;;3.50;2.27;;;6.90;99.90;;;;;;5052755;28;20259;-72
2022/01/14 12:07:32;;;;;;;3.50;2.10;;;6.90;99.90;;;;;;5052873;28;20654;-70
2022/01/14 12:10:01;;;;;;;3.50;2.67;;;7.00;99.90;;;;;;5053694;28;20217;-71
2022/01/14 12:12:31;;;;;;;5.30;2.50;;;7.00;99.90;;;;;;5053798;28;20242;-70
2022/01/14 12:15:02;;;;;;;5.90;2.23;;;7.00;99.90;;;;;;5050456;28;20206;-71
2022/01/14 12:17:36;;;;;;;2.33;2.13;;;7.00;99.90;;;;;;5050200;28;20247;-70
2022/01/14 12:20:11;;;;;;;3.83;2.07;;;7.00;99.90;;;;;;5045837;28;20202;-69
2022/01/14 12:22:38;;;;;;;3.43;2.40;;;7.00;99.90;;;;;;5045653;28;20234;-70
2022/01/14 12:25:06;;;;;;;3.67;2.40;;;7.10;99.90;;;;;;5047803;28;20605;-70
2022/01/14 12:27:43;;;;;;;4.10;2.60;;;7.10;99.90;;;;;;5050475;28;20246;-70
2022/01/14 12:30:36;;;;;;;4.30;2.33;;;7.10;99.90;;;;;;5051248;28;20259;-71
2022/01/14 12:33:03;;;;;;;3.57;2.50;;;7.10;99.90;;;;;;5047655;28;20697;-71
2022/01/14 12:35:34;;;;;;;3.70;3.00;;;7.10;99.90;;;;;;5048019;28;20213;-70
2022/01/14 12:38:02;;;;;;;4.97;2.33;;;7.20;99.90;;;;;;5052456;28;20281;-70
2022/01/14 12:40:40;;;;;;;3.27;2.27;;;7.20;99.90;;;;;;5049964;28;20241;-70
2022/01/14 12:43:11;;;;;;;4.57;2.90;;;7.20;99.90;;;;;;5052520;28;20517;-69
2022/01/14 12:45:53;;;;;;;4.40;2.50;;;7.20;99.90;;;;;;5053717;28;20205;-70
2022/01/14 12:48:40;;;;;;;4.27;2.37;;;7.20;99.90;;;;;;5051991;28;20586;-71
2022/01/14 12:51:11;;;;;;;3.80;2.30;;;7.20;99.90;;;;;;5051739;28;20648;-70
2022/01/14 12:53:46;;;;;;;4.33;2.13;;;7.20;99.90;;;;;;5052915;28;20210;-71
2022/01/14 12:56:17;;;;;;;6.70;2.60;;;7.20;99.90;;;;;;5053657;28;20236;-70
2022/01/14 12:59:09;;;;;;;2.83;2.10;;;7.20;99.90;;;;;;5051574;28;20224;-70
2022/01/14 13:01:40;;;;;;;5.23;2.40;;;7.20;99.90;;;;;;5043425;28;20671;-71
2022/01/14 13:04:10;;;;;;;3.83;2.27;;;7.20;99.90;;;;;;5055079;28;20206;-72
2022/01/14 13:06:46;;;;;;;1.93;1.70;;;7.20;99.90;;;;;;5053574;28;20248;-71
2022/01/14 13:09:18;;;;;;;4.33;2.00;;;7.30;99.90;;;;;;5051857;28;20291;-71
2022/01/14 13:11:48;;;;;;;5.03;2.07;;;7.30;99.90;;;;;;5054175;28;20765;-71
2022/01/14 13:14:18;;;;;;;3.80;2.30;;;7.40;99.90;;;;;;5055377;28;20206;-69